createdAt,value
2022-11-16T00:01:26.760Z,95074.28
2022-11-16T00:03:54.099Z,95064.59
2022-11-16T00:06:21.131Z,95069.84
2022-11-16T00:09:07.106Z,95063.75
2022-11-16T00:11:33.944Z,95056.88
2022-11-16T00:14:00.483Z,95063.38
2022-11-16T00:16:26.935Z,95056.47
2022-11-16T00:18:57.456Z,95059.91
2022-11-16T00:21:24.286Z,95060.72
2022-11-16T00:23:50.767Z,95066.59
2022-11-16T00:26:17.173Z,95054.63
2022-11-16T00:28:43.576Z,95061.53
2022-11-16T00:31:10.579Z,95053.44
2022-11-16T00:33:37.329Z,95052.19
2022-11-16T00:36:05.002Z,95051.19
2022-11-16T00:38:31.797Z,95044.72
2022-11-16T00:40:58.701Z,95035.22
2022-11-16T00:43:25.137Z,95030.53
2022-11-16T00:45:51.594Z,95031.78
2022-11-16T00:48:18.296Z,95038.03
2022-11-16T00:50:45.229Z,95040.66
2022-11-16T00:53:15.998Z,95034.19
2022-11-16T00:55:43.506Z,95035.00
2022-11-16T00:58:10.224Z,95037.44
2022-11-16T01:00:36.654Z,95027.53
2022-11-16T01:03:03.185Z,95025.50
2022-11-16T01:05:29.759Z,95013.19
2022-11-16T01:07:56.249Z,95016.63
2022-11-16T01:10:23.504Z,95023.50
2022-11-16T01:12:50.607Z,95017.41
2022-11-16T01:15:18.094Z,95016.63
2022-11-16T01:17:44.893Z,95007.09
2022-11-16T01:20:16.383Z,95008.72
2022-11-16T01:22:43.190Z,95005.91
2022-11-16T01:25:10.341Z,95006.09
2022-11-16T01:27:36.907Z,95000.84
2022-11-16T01:30:03.930Z,94994.97
2022-11-16T01:32:30.393Z,94998.59
2022-11-16T01:34:56.912Z,94996.78
2022-11-16T01:37:23.381Z,94986.06
2022-11-16T01:39:50.452Z,94981.59
2022-11-16T01:42:18.704Z,94976.75
2022-11-16T01:44:45.082Z,94981.59
2022-11-16T01:47:12.778Z,94993.34
2022-11-16T01:49:49.943Z,94984.63
2022-11-16T01:52:24.687Z,94975.13
2022-11-16T01:54:52.365Z,94965.38
2022-11-16T01:57:21.479Z,94966.00
2022-11-16T01:59:49.843Z,94963.59
2022-11-16T02:02:16.576Z,94965.38
2022-11-16T02:04:43.817Z,94959.34
2022-11-16T02:07:52.906Z,94961.75
2022-11-16T02:10:31.656Z,94948.63
2022-11-16T02:13:11.608Z,94965.41
2022-11-16T02:15:42.981Z,94951.84
2022-11-16T02:18:28.021Z,94948.84
2022-11-16T02:21:13.280Z,94948.81
2022-11-16T02:23:39.682Z,94947.59
2022-11-16T02:26:12.029Z,94938.69
2022-11-16T02:28:57.205Z,94943.97
2022-11-16T02:31:27.860Z,94932.19
2022-11-16T02:33:56.275Z,94931.97
2022-11-16T02:36:24.103Z,94926.34
2022-11-16T02:38:57.058Z,94935.84
2022-11-16T02:41:25.379Z,94921.66
2022-11-16T02:44:01.668Z,94922.84
2022-11-16T02:46:30.478Z,94918.41
2022-11-16T02:48:59.087Z,94919.19
2022-11-16T02:51:27.362Z,94922.44
2022-11-16T02:54:12.759Z,94910.31
2022-11-16T02:56:41.978Z,94903.00
2022-11-16T02:59:12.139Z,94909.06
2022-11-16T03:01:43.453Z,94897.75
2022-11-16T03:04:16.423Z,94901.38
2022-11-16T03:06:45.475Z,94902.84
2022-11-16T03:09:21.454Z,94894.94
2022-11-16T03:11:59.739Z,94888.44
2022-11-16T03:14:33.974Z,94889.25
2022-11-16T03:17:01.113Z,94884.38
2022-11-16T03:19:47.757Z,94886.38
2022-11-16T03:22:15.802Z,94884.34
2022-11-16T03:24:42.431Z,94879.28
2022-11-16T03:27:15.212Z,94874.81
2022-11-16T03:29:52.275Z,94881.72
2022-11-16T03:32:21.724Z,94874.22
2022-11-16T03:34:56.600Z,94871.97
2022-11-16T03:37:23.806Z,94869.34
2022-11-16T03:39:51.862Z,94866.09
2022-11-16T03:42:20.556Z,94862.44
2022-11-16T03:44:48.462Z,94860.41
2022-11-16T03:47:15.195Z,94860.41
2022-11-16T03:49:45.776Z,94859.59
2022-11-16T03:52:12.793Z,94859.22
2022-11-16T03:54:39.181Z,94856.59
2022-11-16T03:57:05.677Z,94858.41
2022-11-16T03:59:32.198Z,94849.50
2022-11-16T04:01:58.572Z,94848.69
2022-11-16T04:04:43.390Z,94842.63
2022-11-16T04:07:28.305Z,94831.28
2022-11-16T04:10:13.406Z,94826.00
2022-11-16T04:13:01.400Z,94835.13
2022-11-16T04:15:46.213Z,94825.75
2022-11-16T04:18:31.553Z,94826.97
2022-11-16T04:21:17.112Z,94822.28
2022-11-16T04:24:02.686Z,94817.03
2022-11-16T04:26:57.963Z,94826.13
2022-11-16T04:29:24.964Z,94812.75
2022-11-16T04:32:09.757Z,94816.22
2022-11-16T04:34:54.611Z,94811.34
2022-11-16T04:37:39.442Z,94812.16
2022-11-16T04:40:06.212Z,94803.44
2022-11-16T04:42:32.596Z,94809.72
2022-11-16T04:45:17.828Z,94814.19
2022-11-16T04:47:44.266Z,94808.69
2022-11-16T04:50:10.713Z,94810.13
2022-11-16T04:52:37.141Z,94803.81
2022-11-16T04:55:03.651Z,94806.44
2022-11-16T04:57:30.019Z,94807.09
2022-11-16T04:59:56.746Z,94811.34
2022-11-16T05:02:23.108Z,94805.84
2022-11-16T05:04:49.601Z,94791.47
2022-11-16T05:07:16.059Z,94791.47
2022-11-16T05:09:43.880Z,94790.88
2022-11-16T05:12:11.430Z,94797.50
2022-11-16T05:14:37.846Z,94787.00
2022-11-16T05:17:04.260Z,94790.22
2022-11-16T05:19:49.087Z,94793.66
2022-11-16T05:22:15.471Z,94780.50
2022-11-16T05:24:41.955Z,94777.66
2022-11-16T05:27:10.353Z,94778.47
2022-11-16T05:29:37.029Z,94772.16
2022-11-16T05:32:03.695Z,94779.84
2022-11-16T05:34:30.092Z,94776.63
2022-11-16T05:36:57.045Z,94774.81
2022-11-16T05:39:23.837Z,94773.97
2022-11-16T05:41:50.582Z,94775.63
2022-11-16T05:44:17.884Z,94769.97
2022-11-16T05:46:44.710Z,94776.06
2022-11-16T05:49:12.000Z,94774.47
2022-11-16T05:51:39.147Z,94772.81
2022-11-16T05:54:06.060Z,94774.03
2022-11-16T05:56:32.986Z,94763.50
2022-11-16T05:58:59.508Z,94769.97
2022-11-16T06:01:26.264Z,94764.69
2022-11-16T06:03:52.885Z,94765.72
2022-11-16T06:06:20.144Z,94760.44
2022-11-16T06:08:46.997Z,94762.66
2022-11-16T06:11:13.689Z,94769.09
2022-11-16T06:13:40.084Z,94763.44
2022-11-16T06:16:25.157Z,94761.38
2022-11-16T06:18:51.613Z,94750.81
2022-11-16T06:21:19.341Z,94742.94
2022-11-16T06:23:45.983Z,94754.06
2022-11-16T06:26:12.726Z,94741.09
2022-11-16T06:28:39.216Z,94746.81
2022-11-16T06:31:05.996Z,94749.66
2022-11-16T06:33:33.904Z,94750.25
2022-11-16T06:36:00.547Z,94754.06
2022-11-16T06:38:27.392Z,94746.75
2022-11-16T06:40:54.880Z,94739.88
2022-11-16T06:43:21.819Z,94749.59
2022-11-16T06:45:51.866Z,94744.72
2022-11-16T06:48:18.735Z,94738.63
2022-11-16T06:50:45.341Z,94740.25
2022-11-16T06:53:11.722Z,94737.63
2022-11-16T06:55:38.108Z,94735.56
2022-11-16T06:58:04.627Z,94732.16
2022-11-16T07:00:31.097Z,94732.38
2022-11-16T07:02:57.554Z,94732.72
2022-11-16T07:05:23.939Z,94728.03
2022-11-16T07:07:53.952Z,94727.63
2022-11-16T07:10:20.325Z,94739.75
2022-11-16T07:12:46.732Z,94739.31
2022-11-16T07:15:13.099Z,94729.59
2022-11-16T07:17:39.745Z,94728.34
2022-11-16T07:20:06.385Z,94732.00
2022-11-16T07:22:32.839Z,94731.63
2022-11-16T07:24:59.240Z,94720.72
2022-11-16T07:27:25.613Z,94720.72
2022-11-16T07:29:51.985Z,94715.03
2022-11-16T07:32:18.469Z,94716.22
2022-11-16T07:34:44.884Z,94721.03
2022-11-16T07:37:11.304Z,94721.47
2022-11-16T07:39:37.686Z,94708.75
2022-11-16T07:42:04.211Z,94707.13
2022-11-16T07:44:30.589Z,94705.28
2022-11-16T07:46:57.176Z,94703.47
2022-11-16T07:49:23.566Z,94701.69
2022-11-16T07:51:49.979Z,94702.72
2022-11-16T07:54:16.522Z,94701.69
2022-11-16T07:56:42.939Z,94693.94
2022-11-16T07:59:09.482Z,94698.81
2022-11-16T08:01:36.028Z,94689.78
2022-11-16T08:04:02.752Z,94690.97
2022-11-16T08:06:30.236Z,94691.19
2022-11-16T08:08:58.687Z,94695.06
2022-11-16T08:11:25.572Z,94688.59
2022-11-16T08:13:51.988Z,94687.81
2022-11-16T08:16:19.483Z,94686.78
2022-11-16T08:18:46.207Z,94678.03
2022-11-16T08:21:13.923Z,94679.19
2022-11-16T08:23:40.647Z,94685.63
2022-11-16T08:26:09.380Z,94676.28
2022-11-16T08:28:36.731Z,94676.41
2022-11-16T08:31:10.543Z,94671.94
2022-11-16T08:33:36.995Z,94674.34
2022-11-16T08:36:08.146Z,94680.66
2022-11-16T08:38:37.452Z,94675.38
2022-11-16T08:41:03.878Z,94681.47
2022-11-16T08:43:31.109Z,94670.72
2022-11-16T08:45:58.589Z,94670.84
2022-11-16T08:48:24.958Z,94681.41
2022-11-16T08:51:15.828Z,94681.97
2022-11-16T08:53:37.767Z,94679.91
2022-11-16T08:56:08.850Z,94681.31
2022-11-16T08:58:36.239Z,94676.84
2022-11-16T09:01:10.142Z,94680.41
2022-11-16T09:03:37.893Z,94683.28
2022-11-16T09:06:04.554Z,94676.41
2022-11-16T09:08:31.740Z,94680.06
2022-11-16T09:10:58.421Z,94680.00
2022-11-16T09:13:25.279Z,94678.66
2022-11-16T09:15:59.094Z,94682.25
2022-11-16T09:18:25.570Z,94677.09
2022-11-16T09:20:52.138Z,94668.50
2022-11-16T09:23:24.883Z,94659.00
2022-11-16T09:25:51.684Z,94662.31
2022-11-16T09:28:18.711Z,94662.03
2022-11-16T09:30:46.460Z,94658.81
2022-11-16T09:33:13.414Z,94659.69
2022-11-16T09:35:40.239Z,94663.38
2022-11-16T09:38:07.099Z,94656.50
2022-11-16T09:40:37.849Z,94654.88
2022-11-16T09:43:16.291Z,94652.00
2022-11-16T09:45:46.174Z,94655.00
2022-11-16T09:48:14.805Z,94653.53
2022-11-16T09:50:49.579Z,94649.09
2022-11-16T09:53:19.023Z,94649.09
2022-11-16T09:55:53.284Z,94644.16
2022-11-16T09:58:33.276Z,94644.09
2022-11-16T10:01:18.330Z,94640.31
2022-11-16T10:03:49.251Z,94642.31
2022-11-16T10:06:23.338Z,94631.88
2022-11-16T10:08:53.887Z,94622.69
2022-11-16T10:11:35.241Z,94622.25
2022-11-16T10:14:20.096Z,94622.81
2022-11-16T10:16:53.318Z,94612.84
2022-11-16T10:19:22.496Z,94620.31
2022-11-16T10:21:48.821Z,94611.25
2022-11-16T10:24:18.202Z,94604.47
2022-11-16T10:26:59.540Z,94609.25
2022-11-16T10:29:43.137Z,94598.94
2022-11-16T10:32:22.457Z,94600.09
2022-11-16T10:34:53.617Z,94593.31
2022-11-16T10:37:20.871Z,94587.38
2022-11-16T10:39:49.301Z,94594.84
2022-11-16T10:42:18.810Z,94590.72
2022-11-16T10:44:47.703Z,94591.06
2022-11-16T10:47:21.050Z,94590.84
2022-11-16T10:49:58.345Z,94589.25
2022-11-16T10:52:25.362Z,94579.50
2022-11-16T10:54:52.105Z,94578.44
2022-11-16T10:57:18.748Z,94577.09
2022-11-16T10:59:49.042Z,94576.72
2022-11-16T11:02:35.745Z,94571.22
2022-11-16T11:05:02.412Z,94567.91
2022-11-16T11:07:39.899Z,94571.34
2022-11-16T11:10:21.735Z,94563.31
2022-11-16T11:13:01.333Z,94557.91
2022-11-16T11:15:27.736Z,94551.00
2022-11-16T11:18:12.203Z,94549.19
2022-11-16T11:20:44.840Z,94549.53
2022-11-16T11:23:17.343Z,94546.22
2022-11-16T11:26:10.100Z,94543.00
2022-11-16T11:28:38.463Z,94541.75
2022-11-16T11:31:07.627Z,94544.97
2022-11-16T11:33:53.952Z,94542.91
2022-11-16T11:36:21.679Z,94543.34
2022-11-16T11:39:01.939Z,94534.88
2022-11-16T11:41:32.388Z,94528.69
2022-11-16T11:44:18.222Z,94538.31
2022-11-16T11:49:49.888Z,94533.19
2022-11-16T11:52:21.862Z,94528.09
2022-11-16T11:54:50.590Z,94525.25
2022-11-16T11:57:23.101Z,94525.69
2022-11-16T11:59:51.584Z,94518.34
2022-11-16T12:02:26.836Z,94514.00
2022-11-16T12:05:21.692Z,94523.84
2022-11-16T12:07:50.085Z,94516.06
2022-11-16T12:10:22.849Z,94513.53
2022-11-16T12:12:55.062Z,94515.69
2022-11-16T12:15:24.512Z,94516.84
2022-11-16T12:18:06.103Z,94521.56
2022-11-16T12:20:38.648Z,94516.28
2022-11-16T12:23:11.221Z,94521.31
2022-11-16T12:25:45.859Z,94507.94
2022-11-16T12:28:20.430Z,94513.78
2022-11-16T12:30:49.549Z,94513.88
2022-11-16T12:33:23.526Z,94510.31
2022-11-16T12:36:08.398Z,94498.16
2022-11-16T12:38:37.825Z,94498.97
2022-11-16T12:41:04.214Z,94490.81
2022-11-16T12:43:49.297Z,94495.28
2022-11-16T12:46:38.081Z,94483.38
2022-11-16T12:49:07.551Z,94489.09
2022-11-16T12:51:52.664Z,94489.44
2022-11-16T12:54:28.313Z,94475.44
2022-11-16T12:57:04.141Z,94479.09
2022-11-16T12:59:50.731Z,94478.63
2022-11-16T13:02:27.758Z,94474.16
2022-11-16T13:05:04.423Z,94479.69
2022-11-16T13:07:39.741Z,94479.91
2022-11-16T13:10:43.066Z,94475.44
2022-11-16T13:13:35.489Z,94473.34
2022-11-16T13:16:02.055Z,94462.34
2022-11-16T13:18:29.823Z,94468.19
2022-11-16T13:21:01.618Z,94462.78
2022-11-16T13:23:39.394Z,94462.59
2022-11-16T13:26:23.942Z,94464.88
2022-11-16T13:28:50.639Z,94459.59
2022-11-16T13:31:20.752Z,94467.28
2022-11-16T13:33:51.227Z,94455.91
2022-11-16T13:36:43.399Z,94450.31
2022-11-16T13:39:11.376Z,94459.25
2022-11-16T13:41:38.905Z,94456.53
2022-11-16T13:44:11.206Z,94455.47
2022-11-16T13:47:01.022Z,94462.56
2022-11-16T13:49:30.172Z,94467.97
2022-11-16T13:52:07.036Z,94466.94
2022-11-16T13:54:48.695Z,94461.00
2022-11-16T13:57:23.647Z,94467.19
2022-11-16T13:59:53.090Z,94466.84
2022-11-16T14:02:29.908Z,94462.13
2022-11-16T14:05:01.507Z,94460.28
2022-11-16T14:07:29.692Z,94457.66
2022-11-16T14:09:56.172Z,94450.09
2022-11-16T14:12:37.556Z,94438.47
2022-11-16T14:15:13.259Z,94449.03
2022-11-16T14:17:58.381Z,94459.03
2022-11-16T14:20:29.992Z,94453.53
2022-11-16T14:23:14.644Z,94449.63
2022-11-16T14:25:59.890Z,94456.88
2022-11-16T14:28:45.107Z,94451.47
2022-11-16T14:31:25.630Z,94447.44
2022-11-16T14:33:53.266Z,94449.97
2022-11-16T14:36:34.779Z,94458.91
2022-11-16T14:39:20.003Z,94448.13
2022-11-16T14:41:47.273Z,94458.69
2022-11-16T14:44:17.585Z,94455.72
2022-11-16T14:46:44.631Z,94450.44
2022-11-16T14:49:16.263Z,94449.03
2022-11-16T14:51:45.071Z,94445.63
2022-11-16T14:54:14.621Z,94451.38
2022-11-16T14:56:59.974Z,94450.78
2022-11-16T14:59:26.689Z,94448.72
2022-11-16T15:01:53.413Z,94446.41
2022-11-16T15:04:20.749Z,94440.56
2022-11-16T15:07:02.287Z,94437.47
2022-11-16T15:09:30.408Z,94432.75
2022-11-16T15:12:15.976Z,94434.38
2022-11-16T15:14:50.913Z,94433.91
2022-11-16T15:17:18.838Z,94429.56
2022-11-16T15:19:53.321Z,94430.38
2022-11-16T15:22:19.991Z,94428.28
2022-11-16T15:24:53.387Z,94422.31
2022-11-16T15:27:34.856Z,94426.31
2022-11-16T15:30:12.834Z,94429.19
2022-11-16T15:32:42.968Z,94429.19
2022-11-16T15:35:15.683Z,94424.97
2022-11-16T15:37:42.151Z,94421.03
2022-11-16T15:40:09.459Z,94417.81
2022-11-16T15:42:37.172Z,94420.47
2022-11-16T15:45:14.381Z,94416.00
2022-11-16T15:47:42.513Z,94410.00
2022-11-16T15:50:16.597Z,94413.78
2022-11-16T15:52:43.792Z,94410.91
2022-11-16T15:55:39.687Z,94411.16
2022-11-16T15:58:14.600Z,94408.75
2022-11-16T16:00:41.174Z,94409.56
2022-11-16T16:03:19.541Z,94405.88
2022-11-16T16:05:46.326Z,94411.16
2022-11-16T16:08:26.853Z,94404.28
2022-11-16T16:11:12.181Z,94404.72
2022-11-16T16:13:40.210Z,94390.75
2022-11-16T16:16:26.149Z,94405.19
2022-11-16T16:18:53.717Z,94403.13
2022-11-16T16:21:20.106Z,94394.97
2022-11-16T16:23:48.449Z,94398.53
2022-11-16T16:26:15.259Z,94399.69
2022-11-16T16:28:41.727Z,94393.16
2022-11-16T16:31:08.615Z,94402.44
2022-11-16T16:33:35.566Z,94399.81
2022-11-16T16:36:02.464Z,94395.31
2022-11-16T16:38:29.296Z,94406.09
2022-11-16T16:41:02.728Z,94406.34
2022-11-16T16:43:29.713Z,94402.31
2022-11-16T16:45:56.601Z,94404.38
2022-11-16T16:48:23.067Z,94393.25
2022-11-16T16:50:49.485Z,94401.75
2022-11-16T16:53:15.934Z,94397.47
2022-11-16T16:55:42.976Z,94397.25
2022-11-16T16:58:13.322Z,94396.03
2022-11-16T17:00:40.815Z,94394.72
2022-11-16T17:03:07.241Z,94397.16
2022-11-16T17:05:34.056Z,94394.28
2022-11-16T17:08:00.938Z,94400.25
2022-11-16T17:10:27.398Z,94393.47
2022-11-16T17:12:54.158Z,94394.75
2022-11-16T17:15:20.544Z,94396.38
2022-11-16T17:17:47.277Z,94391.63
2022-11-16T17:20:13.912Z,94395.88
2022-11-16T17:22:41.899Z,94391.19
2022-11-16T17:25:09.115Z,94394.41
2022-11-16T17:27:35.538Z,94385.09
2022-11-16T17:30:02.010Z,94386.91
2022-11-16T17:32:28.386Z,94376.13
2022-11-16T17:34:54.776Z,94383.03
2022-11-16T17:37:21.181Z,94381.19
2022-11-16T17:39:47.642Z,94384.66
2022-11-16T17:42:14.085Z,94380.19
2022-11-16T17:44:40.508Z,94382.81
2022-11-16T17:47:07.489Z,94383.41
2022-11-16T17:49:33.887Z,94391.88
2022-11-16T17:52:01.368Z,94388.91
2022-11-16T17:54:27.751Z,94394.41
2022-11-16T17:56:54.203Z,94394.84
2022-11-16T17:59:23.789Z,94394.84
2022-11-16T18:01:52.883Z,94390.38
2022-11-16T18:04:19.335Z,94389.56
2022-11-16T18:06:45.748Z,94396.47
2022-11-16T18:09:12.296Z,94397.03
2022-11-16T18:11:39.805Z,94397.84
2022-11-16T18:14:06.270Z,94400.50
2022-11-16T18:16:33.075Z,94400.13
2022-11-16T18:19:00.736Z,94399.00
2022-11-16T18:21:27.322Z,94400.03
2022-11-16T18:23:54.076Z,94399.00
2022-11-16T18:26:21.560Z,94400.59
2022-11-16T18:28:48.686Z,94400.59
2022-11-16T18:31:16.171Z,94397.84
2022-11-16T18:33:43.058Z,94397.84
2022-11-16T18:36:10.217Z,94392.56
2022-11-16T18:38:37.481Z,94389.34
2022-11-16T18:41:05.138Z,94382.63
2022-11-16T18:43:32.132Z,94385.50
2022-11-16T18:45:58.662Z,94384.47
2022-11-16T18:48:25.052Z,94384.03
2022-11-16T18:50:51.559Z,94375.66
2022-11-16T18:53:17.926Z,94384.28
2022-11-16T18:55:52.402Z,94387.81
2022-11-16T18:58:48.804Z,94383.81
2022-11-16T19:01:11.514Z,94381.41
2022-11-16T19:03:38.003Z,94383.34
2022-11-16T19:06:09.105Z,94391.13
2022-11-16T19:08:36.342Z,94391.28
2022-11-16T19:11:03.791Z,94381.84
2022-11-16T19:13:30.175Z,94386.56
2022-11-16T19:15:56.598Z,94379.44
2022-11-16T19:18:23.061Z,94379.69
2022-11-16T19:20:49.510Z,94381.63
2022-11-16T19:23:15.859Z,94384.50
2022-11-16T19:25:42.297Z,94389.41
2022-11-16T19:28:08.717Z,94377.72
2022-11-16T19:30:35.148Z,94375.53
2022-11-16T19:33:01.990Z,94373.56
2022-11-16T19:35:28.373Z,94386.16
2022-11-16T19:37:54.823Z,94378.38
2022-11-16T19:40:24.998Z,94378.72
2022-11-16T19:42:52.590Z,94384.78
2022-11-16T19:45:19.005Z,94385.28
2022-11-16T19:47:45.387Z,94375.19
2022-11-16T19:50:11.930Z,94381.97
2022-11-16T19:52:38.365Z,94387.38
2022-11-16T19:55:04.972Z,94385.44
2022-11-16T19:57:31.338Z,94384.97
2022-11-16T19:59:57.788Z,94382.69
2022-11-16T20:02:24.168Z,94382.69
2022-11-16T20:04:50.564Z,94377.16
2022-11-16T20:07:18.222Z,94376.81
2022-11-16T20:09:48.113Z,94376.13
2022-11-16T20:12:16.949Z,94374.75
2022-11-16T20:14:43.545Z,94375.44
2022-11-16T20:17:10.007Z,94372.22
2022-11-16T20:19:36.426Z,94369.69
2022-11-16T20:22:02.892Z,94368.69
2022-11-16T20:24:29.245Z,94371.56
2022-11-16T20:26:55.687Z,94365.00
2022-11-16T20:29:22.138Z,94370.03
2022-11-16T20:31:48.602Z,94360.31
2022-11-16T20:34:16.289Z,94366.63
2022-11-16T20:36:43.989Z,94356.88
2022-11-16T20:39:14.553Z,94358.72
2022-11-16T20:41:41.222Z,94364.00
2022-11-16T20:44:15.971Z,94356.88
2022-11-16T20:46:44.335Z,94355.84
2022-11-16T20:49:11.015Z,94358.50
2022-11-16T20:51:37.477Z,94366.06
2022-11-16T20:54:04.002Z,94363.88
2022-11-16T20:56:30.465Z,94363.31
2022-11-16T20:58:58.208Z,94366.59
2022-11-16T21:01:28.980Z,94361.13
2022-11-16T21:03:56.288Z,94361.22
2022-11-16T21:06:22.975Z,94357.09
2022-11-16T21:08:49.395Z,94358.00
2022-11-16T21:11:17.006Z,94360.72
2022-11-16T21:14:03.209Z,94357.16
2022-11-16T21:16:29.980Z,94366.91
2022-11-16T21:18:56.532Z,94372.22
2022-11-16T21:21:23.066Z,94366.56
2022-11-16T21:23:53.673Z,94375.91
2022-11-16T21:26:21.065Z,94367.88
2022-11-16T21:28:47.546Z,94366.88
2022-11-16T21:31:19.203Z,94366.88
2022-11-16T21:33:45.918Z,94363.81
2022-11-16T21:36:13.574Z,94364.84
2022-11-16T21:38:40.058Z,94370.66
2022-11-16T21:41:06.654Z,94363.13
2022-11-16T21:43:35.654Z,94365.97
2022-11-16T21:46:03.076Z,94367.75
2022-11-16T21:48:31.365Z,94364.28
2022-11-16T21:51:01.684Z,94369.41
2022-11-16T21:53:28.118Z,94366.44
2022-11-16T21:55:54.496Z,94365.63
2022-11-16T21:58:20.872Z,94364.22
2022-11-16T22:00:47.280Z,94361.44
2022-11-16T22:03:13.666Z,94358.19
2022-11-16T22:05:58.779Z,94358.19
2022-11-16T22:08:25.166Z,94358.19
2022-11-16T22:10:52.212Z,94356.19
2022-11-16T22:13:19.210Z,94356.78
2022-11-16T22:15:45.780Z,94355.75
2022-11-16T22:18:12.610Z,94353.66
2022-11-16T22:20:39.475Z,94359.34
2022-11-16T22:23:05.949Z,94357.88
2022-11-16T22:25:32.478Z,94360.66
2022-11-16T22:28:19.606Z,94354.25
2022-11-16T22:30:50.197Z,94350.28
2022-11-16T22:33:18.301Z,94344.25
2022-11-16T22:35:46.616Z,94352.63
2022-11-16T22:38:13.040Z,94340.03
2022-11-16T22:40:39.460Z,94348.88
2022-11-16T22:43:05.896Z,94345.66
2022-11-16T22:45:32.312Z,94348.38
2022-11-16T22:47:58.718Z,94346.22
2022-11-16T22:50:25.276Z,94345.47
2022-11-16T22:52:51.675Z,94345.94
2022-11-16T22:55:18.143Z,94341.91
2022-11-16T22:57:44.605Z,94351.00
2022-11-16T23:00:12.272Z,94339.91
2022-11-16T23:02:38.686Z,94337.00
2022-11-16T23:05:05.307Z,94339.47
2022-11-16T23:07:31.872Z,94339.78
2022-11-16T23:09:58.434Z,94341.44
2022-11-16T23:12:43.588Z,94338.16
2022-11-16T23:15:31.061Z,94345.22
2022-11-16T23:17:57.796Z,94348.28
2022-11-16T23:20:42.921Z,94349.63
2022-11-16T23:23:37.325Z,94345.50
2022-11-16T23:26:24.088Z,94340.16
2022-11-16T23:28:50.538Z,94338.38
2022-11-16T23:31:16.981Z,94335.59
2022-11-16T23:33:46.451Z,94337.22
2022-11-16T23:36:13.445Z,94336.84
2022-11-16T23:38:40.111Z,94343.94
2022-11-16T23:41:25.677Z,94337.84
2022-11-16T23:43:57.815Z,94340.13
2022-11-16T23:46:28.264Z,94340.72
2022-11-16T23:48:54.734Z,94332.59
2022-11-16T23:51:23.368Z,94335.03
2022-11-16T23:53:53.593Z,94328.16
2022-11-16T23:56:20.515Z,94326.97
2022-11-16T23:58:47.430Z,94326.59
